createdAt,value
2023-01-10T00:00:46.845Z,0.00
2023-01-10T00:01:45.970Z,0.00
2023-01-10T00:02:46.077Z,0.00
2023-01-10T00:03:45.963Z,0.00
2023-01-10T00:04:46.057Z,0.00
2023-01-10T00:05:46.075Z,0.00
2023-01-10T00:06:45.955Z,0.00
2023-01-10T00:07:45.885Z,0.00
2023-01-10T00:08:45.881Z,0.00
2023-01-10T00:09:45.936Z,0.00
2023-01-10T00:10:45.975Z,0.00
2023-01-10T00:11:45.865Z,0.00
2023-01-10T00:12:45.845Z,0.00
2023-01-10T00:13:45.842Z,0.00
2023-01-10T00:14:45.901Z,0.00
2023-01-10T00:15:46.007Z,0.00
2023-01-10T00:16:45.854Z,0.00
2023-01-10T00:17:45.821Z,0.00
2023-01-10T00:18:45.807Z,0.00
2023-01-10T00:19:45.876Z,0.00
2023-01-10T00:20:45.877Z,0.00
2023-01-10T00:21:45.957Z,0.00
2023-01-10T00:22:45.764Z,0.00
2023-01-10T00:23:45.945Z,0.00
2023-01-10T00:24:45.786Z,0.00
2023-01-10T00:25:45.755Z,0.00
2023-01-10T00:26:45.774Z,0.00
2023-01-10T00:27:45.709Z,0.00
2023-01-10T00:28:45.723Z,0.00
2023-01-10T00:29:45.723Z,0.00
2023-01-10T00:30:45.719Z,0.00
2023-01-10T00:31:45.744Z,0.00
2023-01-10T00:32:45.814Z,0.00
2023-01-10T00:33:45.727Z,0.00
2023-01-10T00:34:45.642Z,0.00
2023-01-10T00:35:46.518Z,0.00
2023-01-10T00:36:45.651Z,0.00
2023-01-10T00:37:45.676Z,0.00
2023-01-10T00:38:45.628Z,0.00
2023-01-10T00:39:45.652Z,0.00
2023-01-10T00:40:45.645Z,0.00
2023-01-10T00:41:45.617Z,0.00
2023-01-10T00:42:45.650Z,0.00
2023-01-10T00:43:45.563Z,0.00
2023-01-10T00:44:46.618Z,0.00
2023-01-10T00:45:45.705Z,0.00
2023-01-10T00:46:45.624Z,0.00
2023-01-10T00:47:45.565Z,0.00
2023-01-10T00:48:45.549Z,0.00
2023-01-10T00:49:46.493Z,0.00
2023-01-10T00:50:45.593Z,0.00
2023-01-10T00:51:45.493Z,0.00
2023-01-10T00:52:45.489Z,0.00
2023-01-10T00:53:45.488Z,0.00
2023-01-10T00:54:45.487Z,0.00
2023-01-10T00:55:45.541Z,0.00
2023-01-10T00:56:45.425Z,0.00
2023-01-10T00:57:45.430Z,0.00
2023-01-10T00:58:45.448Z,0.00
2023-01-10T00:59:45.384Z,0.00
2023-01-10T01:00:45.442Z,0.00
2023-01-10T01:01:45.601Z,0.00
2023-01-10T01:02:45.384Z,0.00
2023-01-10T01:03:45.404Z,0.00
2023-01-10T01:04:45.336Z,0.00
2023-01-10T01:05:46.093Z,0.00
2023-01-10T01:06:45.334Z,0.00
2023-01-10T01:07:45.437Z,0.00
2023-01-10T01:08:45.285Z,0.00
2023-01-10T01:09:45.310Z,0.00
2023-01-10T01:10:45.351Z,0.00
2023-01-10T01:11:45.296Z,0.00
2023-01-10T01:12:45.274Z,0.00
2023-01-10T01:13:45.276Z,0.00
2023-01-10T01:14:45.326Z,0.00
2023-01-10T01:15:45.318Z,0.00
2023-01-10T01:16:45.269Z,0.00
2023-01-10T01:17:45.218Z,0.00
2023-01-10T01:18:45.263Z,0.00
2023-01-10T01:19:45.227Z,0.00
2023-01-10T01:20:45.206Z,0.00
2023-01-10T01:21:45.206Z,0.00
2023-01-10T01:22:45.164Z,0.00
2023-01-10T01:23:45.258Z,0.00
2023-01-10T01:24:45.141Z,0.00
2023-01-10T01:25:45.231Z,0.00
2023-01-10T01:26:45.134Z,0.00
2023-01-10T01:27:45.100Z,0.00
2023-01-10T01:28:45.096Z,0.00
2023-01-10T01:29:45.122Z,0.00
2023-01-10T01:30:45.310Z,0.00
2023-01-10T01:31:45.132Z,0.00
2023-01-10T01:32:45.065Z,0.00
2023-01-10T01:33:45.123Z,0.00
2023-01-10T01:34:45.081Z,0.00
2023-01-10T01:35:45.955Z,0.00
2023-01-10T01:36:45.061Z,0.00
2023-01-10T01:37:45.058Z,0.00
2023-01-10T01:38:44.997Z,0.00
2023-01-10T01:39:45.025Z,0.00
2023-01-10T01:40:45.012Z,0.00
2023-01-10T01:41:45.007Z,0.00
2023-01-10T01:42:45.072Z,0.00
2023-01-10T01:43:44.946Z,0.00
2023-01-10T01:44:45.042Z,0.00
2023-01-10T01:45:44.930Z,0.00
2023-01-10T01:46:44.999Z,0.00
2023-01-10T01:47:44.928Z,0.00
2023-01-10T01:48:44.948Z,0.00
2023-01-10T01:49:44.932Z,0.00
2023-01-10T01:50:44.921Z,0.00
2023-01-10T01:51:44.990Z,0.00
2023-01-10T01:52:44.904Z,0.00
2023-01-10T01:53:44.947Z,0.00
2023-01-10T01:54:44.837Z,0.00
2023-01-10T01:55:44.861Z,0.00
2023-01-10T01:56:44.910Z,0.00
2023-01-10T01:57:44.910Z,0.00
2023-01-10T01:58:44.859Z,0.00
2023-01-10T01:59:44.833Z,0.00
2023-01-10T02:00:44.866Z,0.00
2023-01-10T02:01:44.947Z,0.00
2023-01-10T02:02:57.570Z,0.00
2023-01-10T02:03:46.868Z,0.00
2023-01-10T02:04:44.859Z,0.00
2023-01-10T02:05:44.776Z,0.00
2023-01-10T02:06:44.774Z,0.00
2023-01-10T02:07:44.913Z,0.00
2023-01-10T02:08:44.761Z,0.00
2023-01-10T02:09:44.707Z,0.00
2023-01-10T02:10:44.709Z,0.00
2023-01-10T02:11:44.722Z,0.00
2023-01-10T02:12:45.563Z,0.00
2023-01-10T02:13:44.704Z,0.00
2023-01-10T02:14:44.667Z,0.00
2023-01-10T02:15:44.690Z,0.00
2023-01-10T02:16:44.659Z,0.00
2023-01-10T02:17:44.631Z,0.00
2023-01-10T02:18:44.616Z,0.00
2023-01-10T02:19:44.661Z,0.00
2023-01-10T02:20:44.628Z,0.00
2023-01-10T02:21:44.677Z,0.00
2023-01-10T02:22:44.597Z,0.00
2023-01-10T02:23:44.597Z,0.00
2023-01-10T02:24:45.579Z,0.00
2023-01-10T02:25:44.585Z,0.00
2023-01-10T02:26:44.587Z,0.00
2023-01-10T02:27:44.569Z,0.00
2023-01-10T02:28:44.562Z,0.00
2023-01-10T02:29:44.517Z,0.00
2023-01-10T02:30:44.556Z,0.00
2023-01-10T02:31:44.512Z,0.00
2023-01-10T02:32:56.619Z,0.00
2023-01-10T02:33:46.505Z,0.00
2023-01-10T02:34:44.461Z,0.00
2023-01-10T02:35:45.315Z,0.00
2023-01-10T02:36:44.501Z,0.00
2023-01-10T02:37:44.443Z,0.00
2023-01-10T02:38:44.518Z,0.00
2023-01-10T02:39:44.407Z,0.00
2023-01-10T02:40:44.539Z,0.00
2023-01-10T02:41:44.423Z,0.00
2023-01-10T02:42:44.435Z,0.00
2023-01-10T02:43:44.391Z,0.00
2023-01-10T02:44:44.445Z,0.00
2023-01-10T02:45:44.352Z,0.00
2023-01-10T02:46:44.491Z,0.00
2023-01-10T02:47:44.380Z,0.00
2023-01-10T02:48:44.329Z,0.00
2023-01-10T02:49:44.383Z,0.00
2023-01-10T02:50:44.294Z,0.00
2023-01-10T02:51:44.366Z,0.00
2023-01-10T02:52:44.397Z,0.00
2023-01-10T02:53:45.299Z,0.00
2023-01-10T02:54:44.351Z,0.00
2023-01-10T02:55:44.301Z,0.00
2023-01-10T02:56:44.338Z,0.00
2023-01-10T02:57:44.346Z,0.00
2023-01-10T02:58:44.275Z,0.00
2023-01-10T02:59:44.309Z,0.00
2023-01-10T03:00:44.294Z,0.00
2023-01-10T03:01:44.339Z,0.00
2023-01-10T03:02:44.235Z,0.00
2023-01-10T03:03:44.262Z,0.00
2023-01-10T03:04:44.232Z,0.00
2023-01-10T03:05:44.278Z,0.00
2023-01-10T03:06:44.193Z,0.00
2023-01-10T03:07:44.257Z,0.00
2023-01-10T03:08:44.157Z,0.00
2023-01-10T03:09:44.154Z,0.00
2023-01-10T03:10:44.192Z,0.00
2023-01-10T03:11:44.183Z,0.00
2023-01-10T03:12:44.149Z,0.00
2023-01-10T03:13:44.111Z,0.00
2023-01-10T03:14:44.127Z,0.00
2023-01-10T03:15:44.143Z,0.00
2023-01-10T03:16:44.104Z,0.00
2023-01-10T03:17:44.170Z,0.00
2023-01-10T03:18:44.091Z,0.00
2023-01-10T03:19:45.001Z,0.00
2023-01-10T03:20:44.079Z,0.00
2023-01-10T03:21:44.050Z,0.00
2023-01-10T03:22:44.061Z,0.00
2023-01-10T03:23:43.998Z,0.00
2023-01-10T03:24:44.043Z,0.00
2023-01-10T03:25:43.990Z,0.00
2023-01-10T03:26:44.021Z,0.00
2023-01-10T03:27:43.963Z,0.00
2023-01-10T03:28:44.021Z,0.00
2023-01-10T03:29:43.941Z,0.00
2023-01-10T03:30:43.956Z,0.00
2023-01-10T03:31:43.987Z,0.00
2023-01-10T03:32:43.924Z,0.00
2023-01-10T03:33:44.494Z,0.00
2023-01-10T03:34:43.912Z,0.00
2023-01-10T03:35:43.909Z,0.00
2023-01-10T03:36:43.967Z,0.00
2023-01-10T03:37:43.889Z,0.00
2023-01-10T03:38:43.871Z,0.00
2023-01-10T03:39:43.840Z,0.00
2023-01-10T03:40:44.470Z,0.00
2023-01-10T03:41:43.867Z,0.00
2023-01-10T03:42:44.804Z,0.00
2023-01-10T03:43:43.890Z,0.00
2023-01-10T03:44:43.876Z,0.00
2023-01-10T03:45:43.912Z,0.00
2023-01-10T03:46:43.848Z,0.00
2023-01-10T03:47:43.820Z,0.00
2023-01-10T03:48:43.831Z,0.00
2023-01-10T03:49:43.858Z,0.00
2023-01-10T03:50:43.822Z,0.00
2023-01-10T03:51:43.803Z,0.00
2023-01-10T03:52:43.784Z,0.00
2023-01-10T03:53:43.737Z,0.00
2023-01-10T03:54:43.801Z,0.00
2023-01-10T03:55:43.696Z,0.00
2023-01-10T03:56:43.727Z,0.00
2023-01-10T03:57:43.774Z,0.00
2023-01-10T03:58:44.389Z,0.00
2023-01-10T03:59:43.677Z,0.00
2023-01-10T04:00:43.755Z,0.00
2023-01-10T04:01:44.555Z,0.00
2023-01-10T04:02:43.652Z,0.00
2023-01-10T04:03:43.849Z,0.00
2023-01-10T04:04:43.667Z,0.00
2023-01-10T04:05:43.616Z,0.00
2023-01-10T04:06:43.604Z,0.00
2023-01-10T04:07:43.687Z,0.00
2023-01-10T04:08:43.636Z,0.00
2023-01-10T04:09:43.546Z,0.00
2023-01-10T04:10:44.412Z,0.00
2023-01-10T04:11:43.559Z,0.00
2023-01-10T04:12:43.545Z,0.00
2023-01-10T04:13:43.551Z,0.00
2023-01-10T04:14:43.564Z,0.00
2023-01-10T04:15:43.497Z,0.00
2023-01-10T04:16:43.500Z,0.00
2023-01-10T04:17:43.518Z,0.00
2023-01-10T04:18:43.519Z,0.00
2023-01-10T04:19:43.519Z,0.00
2023-01-10T04:20:43.510Z,0.00
2023-01-10T04:21:43.517Z,0.00
2023-01-10T04:22:43.479Z,0.00
2023-01-10T04:23:43.429Z,0.00
2023-01-10T04:24:43.494Z,0.00
2023-01-10T04:25:43.412Z,0.00
2023-01-10T04:26:43.373Z,0.00
2023-01-10T04:27:43.432Z,0.00
2023-01-10T04:28:43.428Z,0.00
2023-01-10T04:29:43.428Z,0.00
2023-01-10T04:30:43.364Z,0.00
2023-01-10T04:31:43.402Z,0.00
2023-01-10T04:32:43.382Z,0.00
2023-01-10T04:33:43.395Z,0.00
2023-01-10T04:34:43.344Z,0.00
2023-01-10T04:35:43.450Z,0.00
2023-01-10T04:36:43.304Z,0.00
2023-01-10T04:37:43.339Z,0.00
2023-01-10T04:38:43.943Z,0.00
2023-01-10T04:39:43.255Z,0.00
2023-01-10T04:40:43.327Z,0.00
2023-01-10T04:41:43.263Z,0.00
2023-01-10T04:42:43.312Z,0.00
2023-01-10T04:43:43.262Z,0.00
2023-01-10T04:44:43.245Z,0.00
2023-01-10T04:45:43.197Z,0.00
2023-01-10T04:46:43.200Z,0.00
2023-01-10T04:47:43.934Z,0.00
2023-01-10T04:48:43.163Z,0.00
2023-01-10T04:49:43.196Z,0.00
2023-01-10T04:50:43.208Z,0.00
2023-01-10T04:51:43.162Z,0.00
2023-01-10T04:52:43.155Z,0.00
2023-01-10T04:53:43.211Z,0.00
2023-01-10T04:54:43.186Z,0.00
2023-01-10T04:55:43.149Z,0.00
2023-01-10T04:56:43.790Z,0.00
2023-01-10T04:57:43.151Z,0.00
2023-01-10T04:58:43.115Z,0.00
2023-01-10T04:59:43.093Z,0.00
2023-01-10T05:00:43.061Z,0.00
2023-01-10T05:01:43.130Z,0.00
2023-01-10T05:02:43.154Z,0.00
2023-01-10T05:03:43.055Z,0.00
2023-01-10T05:04:43.073Z,0.00
2023-01-10T05:05:43.026Z,0.00
2023-01-10T05:06:42.990Z,0.00
2023-01-10T05:07:43.031Z,0.00
2023-01-10T05:08:43.012Z,0.00
2023-01-10T05:09:42.955Z,0.00
2023-01-10T05:10:43.076Z,0.00
2023-01-10T05:11:42.977Z,0.00
2023-01-10T05:12:42.944Z,0.00
2023-01-10T05:13:42.983Z,0.00
2023-01-10T05:14:42.899Z,0.00
2023-01-10T05:15:42.936Z,0.00
2023-01-10T05:16:42.994Z,0.00
2023-01-10T05:17:42.928Z,0.00
2023-01-10T05:18:42.901Z,0.00
2023-01-10T05:19:42.965Z,0.00
2023-01-10T05:20:42.998Z,0.00
2023-01-10T05:21:43.835Z,0.00
2023-01-10T05:22:42.917Z,0.00
2023-01-10T05:23:42.854Z,0.00
2023-01-10T05:24:42.818Z,0.00
2023-01-10T05:25:42.838Z,0.00
2023-01-10T05:26:42.889Z,0.00
2023-01-10T05:27:42.842Z,0.00
2023-01-10T05:28:42.841Z,0.00
2023-01-10T05:29:42.821Z,0.00
2023-01-10T05:30:42.785Z,0.00
2023-01-10T05:31:42.920Z,0.00
2023-01-10T05:32:42.785Z,0.00
2023-01-10T05:33:42.818Z,0.00
2023-01-10T05:34:42.746Z,0.00
2023-01-10T05:35:42.886Z,0.00
2023-01-10T05:36:42.730Z,0.00
2023-01-10T05:37:42.683Z,0.00
2023-01-10T05:38:42.774Z,0.00
2023-01-10T05:39:42.658Z,0.00
2023-01-10T05:40:42.741Z,0.00
2023-01-10T05:41:42.662Z,0.00
2023-01-10T05:42:43.293Z,0.00
2023-01-10T05:43:42.652Z,0.00
2023-01-10T05:44:42.640Z,0.00
2023-01-10T05:45:42.790Z,0.00
2023-01-10T05:46:42.587Z,0.00
2023-01-10T05:47:42.686Z,0.00
2023-01-10T05:48:42.590Z,0.00
2023-01-10T05:49:42.678Z,0.00
2023-01-10T05:50:42.566Z,0.00
2023-01-10T05:51:42.579Z,0.00
2023-01-10T05:52:42.567Z,0.00
2023-01-10T05:53:42.589Z,0.00
2023-01-10T05:54:42.661Z,0.00
2023-01-10T05:55:42.530Z,0.00
2023-01-10T05:56:42.512Z,0.00
2023-01-10T05:57:42.548Z,0.00
2023-01-10T05:58:44.255Z,0.00
2023-01-10T05:59:42.513Z,0.00
2023-01-10T06:00:42.480Z,0.00
2023-01-10T06:01:42.508Z,0.00
2023-01-10T06:02:42.618Z,0.00
2023-01-10T06:03:42.546Z,0.00
2023-01-10T06:04:42.441Z,0.00
2023-01-10T06:05:43.330Z,0.00
2023-01-10T06:06:42.454Z,0.00
2023-01-10T06:07:42.459Z,0.00
2023-01-10T06:08:42.459Z,0.00
2023-01-10T06:09:42.388Z,0.00
2023-01-10T06:10:42.525Z,0.00
2023-01-10T06:11:42.362Z,0.00
2023-01-10T06:12:42.371Z,0.00
2023-01-10T06:13:42.393Z,0.00
2023-01-10T06:14:42.341Z,0.00
2023-01-10T06:15:42.381Z,0.00
2023-01-10T06:16:42.343Z,0.00
2023-01-10T06:17:42.366Z,0.00
2023-01-10T06:18:42.379Z,0.00
2023-01-10T06:33:00.109Z,0.00
2023-01-10T06:34:00.118Z,0.00
2023-01-10T06:35:00.031Z,0.00
2023-01-10T06:36:00.021Z,0.00
2023-01-10T06:37:00.035Z,0.00
2023-01-10T06:38:00.010Z,0.00
2023-01-10T06:39:01.971Z,0.00
2023-01-10T06:40:01.132Z,0.00
2023-01-10T06:41:01.801Z,0.00
2023-01-10T06:42:01.188Z,0.00
2023-01-10T06:43:01.127Z,0.00
2023-01-10T06:44:01.121Z,0.00
2023-01-10T06:45:01.160Z,0.00
2023-01-10T06:46:01.127Z,0.00
2023-01-10T06:47:01.134Z,0.00
2023-01-10T06:48:01.115Z,0.00
2023-01-10T06:49:01.089Z,0.00
2023-01-10T06:50:01.055Z,0.00
2023-01-10T06:51:01.121Z,0.00
2023-01-10T06:52:01.015Z,0.00
2023-01-10T06:53:01.013Z,0.00
2023-01-10T06:54:01.027Z,0.00
2023-01-10T06:55:01.021Z,0.00
2023-01-10T06:56:01.049Z,0.00
2023-01-10T06:57:01.463Z,0.00
2023-01-10T06:58:00.975Z,4.00
2023-01-10T06:59:00.995Z,4.00
2023-01-10T07:00:00.964Z,0.00
2023-01-10T07:01:01.046Z,4.00
2023-01-10T07:02:01.106Z,4.00
2023-01-10T07:03:00.910Z,4.00
2023-01-10T07:04:01.008Z,4.00
2023-01-10T07:05:00.958Z,4.00
2023-01-10T07:06:00.864Z,8.00
2023-01-10T07:07:00.880Z,12.00
2023-01-10T07:08:00.887Z,16.00
2023-01-10T07:09:00.971Z,16.00
2023-01-10T07:10:00.904Z,20.00
2023-01-10T07:11:00.854Z,20.00
2023-01-10T07:12:00.864Z,24.00
2023-01-10T07:13:00.814Z,24.00
2023-01-10T07:14:00.910Z,32.00
2023-01-10T07:15:00.810Z,36.00
2023-01-10T07:16:00.858Z,40.00
2023-01-10T07:17:00.873Z,44.00
2023-01-10T07:18:00.753Z,52.00
2023-01-10T07:19:00.763Z,52.00
2023-01-10T07:20:00.787Z,56.00
2023-01-10T07:21:00.755Z,56.00
2023-01-10T07:22:00.720Z,56.00
2023-01-10T07:23:00.784Z,56.00
2023-01-10T07:24:02.641Z,52.00
2023-01-10T07:37:00.699Z,228.00
2023-01-10T07:38:00.734Z,212.00
2023-01-10T07:39:01.940Z,200.00
2023-01-10T07:40:01.783Z,196.00
2023-01-10T07:41:01.758Z,192.00
2023-01-10T07:42:04.211Z,196.00
2023-01-10T07:43:02.396Z,208.00
2023-01-10T07:44:01.763Z,200.00
2023-01-10T07:45:01.809Z,196.00
2023-01-10T07:46:03.760Z,208.00
2023-01-10T07:47:01.724Z,224.00
2023-01-10T07:48:01.715Z,244.00
2023-01-10T07:49:01.711Z,244.00
2023-01-10T07:50:01.739Z,240.00
2023-01-10T07:51:01.717Z,240.00
2023-01-10T07:52:01.692Z,240.00
2023-01-10T07:53:01.684Z,240.00
2023-01-10T07:54:01.638Z,236.00
2023-01-10T07:55:01.663Z,224.00
2023-01-10T07:56:01.652Z,228.00
2023-01-10T07:57:02.475Z,236.00
2023-01-10T07:58:01.601Z,240.00
2023-01-10T07:59:01.628Z,256.00
2023-01-10T08:00:01.567Z,284.00
2023-01-10T08:01:01.647Z,336.00
2023-01-10T08:02:01.571Z,356.00
2023-01-10T08:03:01.708Z,352.00
2023-01-10T08:04:01.593Z,364.00
2023-01-10T08:05:01.542Z,400.00
2023-01-10T08:06:01.532Z,440.00
2023-01-10T08:07:01.488Z,484.00
2023-01-10T08:08:01.602Z,516.00
2023-01-10T08:09:01.528Z,560.00
2023-01-10T08:10:01.514Z,612.00
2023-01-10T08:11:01.469Z,640.00
2023-01-10T08:12:01.426Z,688.00
2023-01-10T08:13:13.166Z,752.00
2023-01-10T08:14:03.490Z,808.00
2023-01-10T08:15:01.448Z,844.00
2023-01-10T08:16:01.461Z,896.00
2023-01-10T08:17:01.401Z,908.00
2023-01-10T08:18:03.443Z,920.00
2023-01-10T08:19:01.418Z,928.00
2023-01-10T08:20:01.382Z,936.00
2023-01-10T08:21:01.367Z,960.00
2023-01-10T08:22:01.371Z,996.00
2023-01-10T08:23:01.371Z,1072.00
2023-01-10T08:24:01.395Z,1164.00
2023-01-10T08:25:01.387Z,1184.00
2023-01-10T08:26:01.334Z,1260.00
2023-01-10T08:27:01.385Z,1308.00
2023-01-10T08:28:01.301Z,1248.00
2023-01-10T08:29:01.386Z,1264.00
2023-01-10T08:30:01.377Z,1268.00
2023-01-10T08:31:01.327Z,1304.00
2023-01-10T08:32:01.256Z,1096.00
2023-01-10T08:33:01.318Z,1112.00
2023-01-10T08:34:01.457Z,1240.00
2023-01-10T08:35:01.231Z,1268.00
2023-01-10T08:36:01.303Z,1188.00
2023-01-10T08:37:01.215Z,1280.00
2023-01-10T08:38:01.232Z,1184.00
2023-01-10T08:39:01.226Z,1168.00
2023-01-10T08:40:01.197Z,1308.00
2023-01-10T08:41:02.014Z,1436.00
2023-01-10T08:42:01.163Z,1488.00
2023-01-10T08:43:01.175Z,1520.00
2023-01-10T08:44:01.183Z,1648.00
2023-01-10T08:45:01.200Z,1780.00
2023-01-10T08:46:01.136Z,1628.00
2023-01-10T08:47:01.170Z,1596.00
2023-01-10T08:48:01.140Z,1604.00
2023-01-10T08:49:01.200Z,1604.00
2023-01-10T08:50:01.894Z,1532.00
2023-01-10T08:51:01.108Z,1444.00
2023-01-10T08:52:01.125Z,1332.00
2023-01-10T08:53:01.120Z,1188.00
2023-01-10T08:54:01.063Z,1156.00
2023-01-10T08:55:01.081Z,1156.00
2023-01-10T08:56:01.068Z,1128.00
2023-01-10T08:57:01.027Z,1096.00
2023-01-10T08:58:00.990Z,1076.00
2023-01-10T08:59:01.035Z,1060.00
2023-01-10T09:00:01.016Z,1076.00
2023-01-10T09:01:01.034Z,1084.00
2023-01-10T09:02:00.990Z,1088.00
2023-01-10T09:03:00.955Z,1120.00
2023-01-10T09:04:00.947Z,1192.00
2023-01-10T09:05:00.978Z,1220.00
2023-01-10T09:06:00.952Z,1216.00
2023-01-10T09:07:01.023Z,1184.00
2023-01-10T09:08:00.956Z,1160.00
2023-01-10T09:09:00.914Z,1208.00
2023-01-10T09:10:00.857Z,1284.00
2023-01-10T09:11:00.975Z,1320.00
2023-01-10T09:12:00.867Z,1328.00
2023-01-10T09:13:00.965Z,1276.00
2023-01-10T09:14:00.846Z,1216.00
2023-01-10T09:15:00.873Z,1140.00
2023-01-10T09:16:00.841Z,1048.00
2023-01-10T09:17:00.867Z,964.00
2023-01-10T09:18:00.848Z,960.00
2023-01-10T09:19:00.866Z,1024.00
2023-01-10T09:20:00.799Z,1200.00
2023-01-10T09:21:00.805Z,1320.00
2023-01-10T09:22:00.821Z,1384.00
2023-01-10T09:23:00.763Z,1428.00
2023-01-10T09:24:00.768Z,1460.00
2023-01-10T09:25:00.742Z,1492.00
2023-01-10T09:26:00.979Z,1548.00
2023-01-10T09:27:00.698Z,1600.00
2023-01-10T09:28:00.762Z,1584.00
2023-01-10T09:29:01.566Z,1600.00
2023-01-10T09:30:00.723Z,1512.00
2023-01-10T09:31:00.918Z,1484.00
2023-01-10T09:32:00.689Z,1476.00
2023-01-10T09:33:00.672Z,1460.00
2023-01-10T09:34:00.733Z,1464.00
2023-01-10T09:35:00.653Z,1484.00
2023-01-10T09:36:00.700Z,1520.00
2023-01-10T09:37:00.636Z,1632.00
2023-01-10T09:38:00.604Z,1820.00
2023-01-10T09:39:00.630Z,1892.00
2023-01-10T09:40:00.666Z,1928.00
2023-01-10T09:41:00.591Z,1984.00
2023-01-10T09:42:00.591Z,1948.00
2023-01-10T09:43:00.545Z,1868.00
2023-01-10T09:44:01.456Z,1796.00
2023-01-10T09:45:01.621Z,1692.00
2023-01-10T09:46:00.520Z,1700.00
2023-01-10T09:47:05.978Z,1772.00
2023-01-10T09:48:02.499Z,1724.00
2023-01-10T09:49:00.590Z,1688.00
2023-01-10T09:50:00.489Z,1624.00
2023-01-10T09:51:00.520Z,1576.00
2023-01-10T09:52:00.451Z,1480.00
2023-01-10T09:53:00.617Z,1316.00
2023-01-10T09:54:11.234Z,1180.00
2023-01-10T09:55:02.490Z,1132.00
2023-01-10T09:56:00.437Z,1092.00
2023-01-10T09:57:00.444Z,1120.00
2023-01-10T09:58:00.403Z,1308.00
2023-01-10T09:59:00.450Z,1504.00
2023-01-10T10:00:00.412Z,1684.00
2023-01-10T10:01:00.444Z,1940.00
2023-01-10T10:02:00.394Z,2152.00
2023-01-10T10:03:00.423Z,2468.00
2023-01-10T10:04:00.374Z,3036.00
2023-01-10T10:05:00.384Z,3120.00
2023-01-10T10:06:11.163Z,3092.00
2023-01-10T10:07:02.315Z,3104.00
2023-01-10T10:08:00.322Z,3156.00
2023-01-10T10:09:00.285Z,2396.00
2023-01-10T10:10:00.508Z,2312.00
2023-01-10T10:11:00.327Z,2204.00
2023-01-10T10:12:00.275Z,2028.00
2023-01-10T10:13:00.307Z,1836.00
2023-01-10T10:14:00.253Z,1924.00
2023-01-10T10:15:00.289Z,1980.00
2023-01-10T10:16:00.394Z,1972.00
2023-01-10T10:17:00.232Z,1796.00
2023-01-10T10:18:00.255Z,1964.00
2023-01-10T10:19:00.237Z,1888.00
2023-01-10T10:20:00.221Z,1940.00
2023-01-10T10:21:00.175Z,1976.00
2023-01-10T10:22:00.262Z,2112.00
2023-01-10T10:23:00.164Z,2352.00
2023-01-10T10:24:00.132Z,2432.00
2023-01-10T10:25:00.180Z,2292.00
2023-01-10T10:26:00.124Z,2160.00
2023-01-10T10:27:00.120Z,2032.00
2023-01-10T10:28:00.150Z,2052.00
2023-01-10T10:29:00.118Z,2052.00
2023-01-10T10:30:00.165Z,2012.00
2023-01-10T10:31:00.078Z,2036.00
2023-01-10T10:32:00.104Z,1888.00
2023-01-10T10:33:00.118Z,2056.00
2023-01-10T10:34:00.067Z,1920.00
2023-01-10T10:35:00.093Z,1992.00
2023-01-10T10:36:00.049Z,2240.00
2023-01-10T10:37:00.042Z,2652.00
2023-01-10T10:38:00.002Z,2832.00
2023-01-10T10:39:00.051Z,3296.00
2023-01-10T10:40:00.147Z,2808.00
2023-01-10T10:40:59.970Z,2748.00
2023-01-10T10:41:59.965Z,2796.00
2023-01-10T10:42:59.949Z,3020.00
2023-01-10T10:43:59.976Z,3032.00
2023-01-10T10:45:00.906Z,3040.00
2023-01-10T10:45:59.986Z,3020.00
2023-01-10T10:46:59.920Z,3056.00
2023-01-10T10:47:59.929Z,2928.00
2023-01-10T10:48:59.916Z,3076.00
2023-01-10T10:49:59.883Z,3044.00
2023-01-10T10:50:59.953Z,2812.00
2023-01-10T10:51:59.871Z,2792.00
2023-01-10T10:52:59.855Z,2752.00
2023-01-10T10:54:00.485Z,2528.00
2023-01-10T10:54:59.886Z,2236.00
2023-01-10T10:55:59.865Z,2068.00
2023-01-10T10:56:59.802Z,2300.00
2023-01-10T10:58:01.091Z,2492.00
2023-01-10T10:59:00.803Z,2488.00
2023-01-10T10:59:59.847Z,2628.00
2023-01-10T11:00:59.891Z,2528.00
2023-01-10T11:01:59.850Z,2532.00
2023-01-10T11:02:59.780Z,2668.00
2023-01-10T11:03:59.792Z,2776.00
2023-01-10T11:04:59.752Z,3288.00
2023-01-10T11:05:59.792Z,4176.00
2023-01-10T11:06:59.719Z,4264.00
2023-01-10T11:08:00.484Z,4332.00
2023-01-10T11:08:59.705Z,3600.00
2023-01-10T11:09:59.733Z,3548.00
2023-01-10T11:10:59.688Z,3420.00
2023-01-10T11:11:59.675Z,3640.00
2023-01-10T11:12:59.707Z,4008.00
2023-01-10T11:13:59.626Z,3236.00
2023-01-10T11:14:59.695Z,2620.00
2023-01-10T11:15:59.655Z,2120.00
2023-01-10T11:16:59.632Z,1752.00
2023-01-10T11:17:59.608Z,1552.00
2023-01-10T11:18:59.732Z,1464.00
2023-01-10T11:19:59.666Z,1420.00
2023-01-10T11:20:59.663Z,1396.00
2023-01-10T11:21:59.601Z,1516.00
2023-01-10T11:22:59.586Z,1636.00
2023-01-10T11:23:59.677Z,1576.00
2023-01-10T11:24:59.594Z,1792.00
2023-01-10T11:25:59.560Z,1968.00
2023-01-10T11:26:59.587Z,2144.00
2023-01-10T11:27:59.555Z,2228.00
2023-01-10T11:28:59.540Z,2052.00
2023-01-10T11:29:59.520Z,1860.00
2023-01-10T11:30:59.546Z,1820.00
2023-01-10T11:31:59.595Z,1696.00
2023-01-10T11:32:59.570Z,1604.00
2023-01-10T11:33:59.447Z,1668.00
2023-01-10T11:34:59.519Z,1632.00
2023-01-10T11:35:59.418Z,1584.00
2023-01-10T11:36:59.558Z,1580.00
2023-01-10T11:37:59.426Z,1532.00
2023-01-10T11:38:59.468Z,1464.00
2023-01-10T11:39:59.445Z,1536.00
2023-01-10T11:40:59.395Z,1536.00
2023-01-10T11:41:59.383Z,1360.00
2023-01-10T11:42:59.625Z,1260.00
2023-01-10T11:44:00.388Z,1436.00
2023-01-10T11:44:59.414Z,1488.00
2023-01-10T11:45:59.367Z,1464.00
2023-01-10T11:47:00.003Z,1388.00
2023-01-10T11:47:59.355Z,1368.00
2023-01-10T11:49:06.209Z,1364.00
2023-01-10T11:50:01.300Z,1296.00
2023-01-10T11:51:00.298Z,1184.00
2023-01-10T11:51:59.282Z,1148.00
2023-01-10T11:52:59.381Z,1248.00
2023-01-10T11:53:59.283Z,1276.00
2023-01-10T11:55:00.019Z,1204.00
2023-01-10T11:55:59.248Z,1136.00
2023-01-10T11:56:59.229Z,1240.00
2023-01-10T11:57:59.217Z,1360.00
2023-01-10T11:58:59.285Z,1400.00
2023-01-10T11:59:59.280Z,1512.00
2023-01-10T12:00:59.349Z,1576.00
2023-01-10T12:01:59.232Z,1552.00
2023-01-10T12:02:59.206Z,1564.00
2023-01-10T12:03:59.200Z,1520.00
2023-01-10T12:04:59.199Z,1576.00
2023-01-10T12:05:59.143Z,1636.00
2023-01-10T12:06:59.161Z,1652.00
2023-01-10T12:07:59.204Z,1580.00
2023-01-10T12:08:59.127Z,1464.00
2023-01-10T12:09:59.122Z,1552.00
2023-01-10T12:10:59.092Z,1564.00
2023-01-10T12:11:59.244Z,1492.00
2023-01-10T12:12:59.137Z,1388.00
2023-01-10T12:13:59.088Z,1220.00
2023-01-10T12:14:59.124Z,1112.00
2023-01-10T12:15:59.060Z,1048.00
2023-01-10T12:16:59.131Z,1140.00
2023-01-10T12:17:59.063Z,1228.00
2023-01-10T12:18:59.030Z,1136.00
2023-01-10T12:19:59.000Z,1016.00
2023-01-10T12:20:59.815Z,1028.00
2023-01-10T12:21:59.024Z,1008.00
2023-01-10T12:22:59.000Z,1008.00
2023-01-10T12:23:59.076Z,1052.00
2023-01-10T12:24:58.960Z,1172.00
2023-01-10T12:26:11.008Z,1356.00
2023-01-10T12:27:00.962Z,1532.00
2023-01-10T12:27:58.999Z,1640.00
2023-01-10T12:28:58.952Z,1780.00
2023-01-10T12:29:58.985Z,1848.00
2023-01-10T12:30:58.928Z,1940.00
2023-01-10T12:31:58.872Z,1980.00
2023-01-10T12:32:58.969Z,1860.00
2023-01-10T12:33:58.862Z,1728.00
2023-01-10T12:34:59.006Z,1640.00
2023-01-10T12:35:58.857Z,1568.00
2023-01-10T12:36:58.863Z,1628.00
2023-01-10T12:37:58.840Z,1604.00
2023-01-10T12:38:58.832Z,1636.00
2023-01-10T12:39:58.834Z,1632.00
2023-01-10T12:40:58.943Z,1652.00
2023-01-10T12:41:59.914Z,1700.00
2023-01-10T12:42:58.859Z,1704.00
2023-01-10T12:43:58.777Z,1732.00
2023-01-10T12:44:58.834Z,1748.00
2023-01-10T12:46:01.152Z,1828.00
2023-01-10T12:47:09.947Z,2004.00
2023-01-10T12:48:01.571Z,2012.00
2023-01-10T12:48:58.769Z,2004.00
2023-01-10T12:49:58.733Z,2044.00
2023-01-10T12:50:58.759Z,2136.00
2023-01-10T12:51:58.716Z,2076.00
2023-01-10T12:52:58.774Z,1880.00
2023-01-10T12:53:59.393Z,1772.00
2023-01-10T12:54:58.638Z,1704.00
2023-01-10T12:55:59.522Z,1560.00
2023-01-10T12:56:58.709Z,1536.00
2023-01-10T12:57:58.700Z,1580.00
2023-01-10T12:58:59.627Z,1720.00
2023-01-10T12:59:58.657Z,1748.00
2023-01-10T13:00:59.468Z,1724.00
2023-01-10T13:01:58.727Z,1620.00
2023-01-10T13:02:58.758Z,1448.00
2023-01-10T13:03:58.582Z,1408.00
2023-01-10T13:04:58.695Z,1476.00
2023-01-10T13:05:58.580Z,1460.00
2023-01-10T13:07:00.234Z,1436.00
2023-01-10T13:07:58.614Z,1364.00
2023-01-10T13:08:58.548Z,1256.00
2023-01-10T13:09:59.537Z,1208.00
2023-01-10T13:10:58.607Z,1156.00